Station: Liawenee  

  Atmospheric Gas Attenuation - ITU Rec 676-11   ----------------- dB/100km -----------------
Date Time Temp RH % AH g/m3 Dew Point Wind Direction Speed kph Gust kph Barometer mB Rainfall Since 9am 24GHz 47GHz 76GHz 122GHz 134GHz 241GHz
08/05 12:30 5.1 91 6.23 3.8 24 35 1016.5 0 14.9 24.6 34.4 89.8 76.7 261.3
08/05 12:20 5 90 6.12 3.5 30 35 1016.3 0 14.6 24.4 33.9 88.7 75.3 256.4
08/05 12:10 5.7 89 6.34 4 32 43 1016.1 0 15.1 24.6 34.5 90.3 77.6 264.4
08/05 12:00 5.4 89 6.21 3.7 37 56 1015.8 0 14.8 24.5 34.1 89.2 76.1 259.2
08/05 11:50 5.3 95 6.59 4.6 33 37 1015.7 0 15.6 25.1 35.7 93.5 81.4 277.7
08/05 11:40 4.8 95 6.38 4.1 33 39 1015.6 0 15.2 24.9 35.1 91.7 79.0 269.3
08/05 11:30 4.6 95 6.29 3.9 35 50 1015.4 0 15.0 24.8 34.8 90.9 78.0 265.6
08/05 11:20 4.6 94 6.22 3.7 37 46 1015.3 0 14.9 24.7 34.5 90.1 77.0 262.2
08/05 11:10 4.5 96 6.32 3.9 39 50 1015.1 0 15.1 24.9 34.9 91.4 78.5 267.3
08/05 11:00 4.5 96 6.32 3.9 39 54 1014.8 0 15.1 24.9 34.9 91.3 78.4 267.3
08/05 10:50 4.6 95 6.29 3.9 41 44 1014.6 0 15.0 24.8 34.7 90.9 77.9 265.4
08/05 10:40 4.5 95 6.25 3.8 37 43 1014.7 0 14.9 24.7 34.6 90.5 77.5 263.9
08/05 10:30 4.2 96 6.19 3.6 37 46 1014.8 0 14.8 24.7 34.5 90.2 77.0 262.0
08/05 10:20 3.9 96 6.07 3.3 28 35 1014.9 0 14.6 24.6 34.1 89.2 75.6 257.3
08/05 10:10 3.6 96 5.95 3 37 46 1014.8 0 14.3 24.5 33.8 88.2 74.3 252.5
08/05 10:00 3.6 97 6.01 3.2 30 44 1014.7 0 14.5 24.6 34.0 88.9 75.1 255.3
08/05 09:50 3.6 98 6.07 3.3 32 37 1014.4 0 14.6 24.7 34.3 89.5 75.9 258.2
08/05 09:40 3.5 98 6.03 3.2 30 37 1014 0 14.5 24.6 34.1 89.2 75.4 256.5
08/05 09:30 3.3 97 5.89 2.9 37 54 1013.6 0 14.2 24.4 33.6 87.8 73.6 250.3
08/05 09:20 3.4 96 5.87 2.8 46 59 1013.2 0 14.2 24.3 33.5 87.4 73.2 248.9
08/05 09:10 3.3 96 5.83 2.7 44 57 1012.8 0 14.1 24.3 33.3 87.1 72.8 247.2
08/05 09:00 3.3 97 5.89 2.9 48 69 1012.5 0 14.2 24.4 33.6 87.7 73.6 250.1
08/05 08:50 3.3 97 5.89 2.9 52 61 1012.2 3.2 14.2 24.4 33.5 87.7 73.5 250.0
08/05 08:40 3.2 97 5.85 2.8 48 59 1011.9 3.2 14.1 24.3 33.4 87.3 73.1 248.3
08/05 08:30 3.3 96 5.83 2.7 46 70 1012 3.2 14.1 24.3 33.3 87.0 72.7 247.1
08/05 08:20 3.2 95 5.73 2.5 41 50 1011.9 3.2 13.9 24.1 32.9 86.0 71.4 242.6
08/05 08:10 3.1 98 5.87 2.8 50 59 1011.5 3.2 14.2 24.4 33.5 87.6 73.4 249.5
08/05 08:00 3 99 5.89 2.9 41 57 1011.2 3.2 14.2 24.4 33.6 87.9 73.8 250.7
08/05 07:50 3.1 99 5.93 3 46 54 1011.1 3.2 14.3 24.4 33.7 88.2 74.2 252.3
08/05 07:40 3 98 5.83 2.7 48 69 1010.5 3.2 14.1 24.3 33.3 87.2 72.9 247.7
08/05 07:30 2.9 98 5.79 2.6 52 72 1010.2 3.2 14.0 24.2 33.2 86.8 72.4 246.0
08/05 07:20 2.9 98 5.79 2.6 54 67 1009.9 3.2 14.0 24.2 33.2 86.8 72.4 246.0
08/05 07:10 2.8 98 5.75 2.5 52 65 1009.7 3.2 13.9 24.2 33.1 86.4 71.9 244.3
08/05 07:00 3 98 5.83 2.7 50 72 1009.8 3.2 14.1 24.3 33.3 87.1 72.9 247.6
08/05 06:50 3 98 5.83 2.7 52 63 1010.3 3.2 14.1 24.3 33.3 87.2 72.9 247.7
08/05 06:40 3 97 5.77 2.6 50 63 1010.3 3.2 14.0 24.2 33.1 86.5 72.1 244.8
08/05 06:30 3 97 5.77 2.6 50 65 1010.5 3.2 14.0 24.2 33.1 86.5 72.1 244.8
08/05 06:20 2.9 97 5.73 2.5 37 54 1010.5 3.2 13.9 24.1 33.0 86.2 71.6 243.2
08/05 06:10 2.9 96 5.67 2.3 39 52 1010.5 3.2 13.7 24.0 32.7 85.5 70.8 240.3
08/05 06:00 2.9 96 5.67 2.3 39 54 1010.3 3.2 13.7 24.0 32.7 85.5 70.8 240.3
08/05 05:50 2.8 95 5.58 2.1 46 65 1009.8 3.2 13.6 23.9 32.4 84.6 69.6 236.2
08/05 05:40 2.7 96 5.6 2.1 43 56 1009.5 3.2 13.6 23.9 32.5 84.9 70.0 237.4
08/05 05:30 2.7 96 5.6 2.1 41 54 1009.5 3.2 13.6 23.9 32.5 84.9 70.0 237.4
08/05 05:20 2.8 96 5.64 2.2 41 46 1009.4 3.2 13.7 24.0 32.6 85.2 70.4 239.0
08/05 05:10 2.8 96 5.64 2.2 41 61 1009.1 3.2 13.7 24.0 32.6 85.2 70.4 238.9
08/05 05:00 2.8 96 5.64 2.2 41 56 1009 3.2 13.7 24.0 32.6 85.2 70.4 238.9
08/05 04:50 2.8 96 5.64 2.2 41 54 1009.1 3.2 13.7 24.0 32.6 85.2 70.4 238.9
08/05 04:40 2.8 96 5.64 2.2 46 56 1009 3.2 13.7 24.0 32.6 85.2 70.4 238.9
08/05 04:30 3 97 5.77 2.6 39 54 1009 3.2 14.0 24.1 33.0 86.4 72.0 244.5
08/05 04:20 3.1 98 5.87 2.8 37 44 1009 3.2 14.2 24.3 33.4 87.4 73.3 249.0
08/05 04:10 3.1 98 5.87 2.8 28 33 1009.1 3.2 14.2 24.3 33.4 87.4 73.3 249.0
08/05 04:00 3.3 97 5.89 2.9 35 48 1009.1 3.2 14.2 24.2 33.4 87.4 73.3 249.3
08/05 03:50 3.3 97 5.89 2.9 39 46 1009.1 3.2 14.2 24.2 33.4 87.4 73.3 249.3
08/05 03:40 3.3 96 5.83 2.7 35 46 1009.4 3.2 14.1 24.2 33.2 86.7 72.5 246.5
08/05 03:30 3.4 97 5.93 3 32 54 1009.3 3.2 14.3 24.3 33.5 87.7 73.8 251.0
08/05 03:20 3.4 98 5.99 3.1 37 48 1009.1 3.2 14.4 24.4 33.8 88.4 74.6 253.8
08/05 03:10 3.4 98 5.99 3.1 26 30 1009 3 14.4 24.4 33.8 88.4 74.6 253.8
08/05 03:00 3.4 98 5.99 3.1 26 35 1008.8 3 14.4 24.4 33.8 88.3 74.6 253.7
08/05 02:50 3.3 98 5.95 3 30 35 1008.7 3 14.3 24.3 33.6 88.0 74.1 252.1
08/05 02:40 3.3 98 5.95 3 22 24 1008.6 3 14.3 24.3 33.6 88.0 74.1 252.1
08/05 02:30 3.3 97 5.89 2.9 30 46 1008.5 3 14.2 24.2 33.4 87.3 73.3 249.2
08/05 02:20 3.3 96 5.83 2.7 33 41 1008.5 2.8 14.1 24.1 33.1 86.7 72.5 246.3
08/05 02:10 3.3 96 5.83 2.7 28 35 1008.7 2.8 14.1 24.1 33.1 86.7 72.5 246.4
08/05 02:00 3.4 94 5.75 2.5 28 46 1008.8 2.6 13.9 24.0 32.8 85.7 71.3 242.3
08/05 01:50 3.3 94 5.71 2.4 26 32 1008.9 2.6 13.8 23.9 32.7 85.4 70.9 240.7
08/05 01:40 3.3 92 5.59 2.1 37 44 1008.7 2.6 13.6 23.7 32.2 84.0 69.2 235.0
08/05 01:30 3.7 92 5.74 2.5 37 50 1008.3 2.6 13.9 23.9 32.6 85.2 70.9 240.8
08/05 01:20 3.9 95 6 3.2 28 37 1008.1 2.6 14.4 24.2 33.6 87.8 74.2 252.4
08/05 01:10 4 95 6.05 3.3 33 43 1008 2.6 14.5 24.3 33.7 88.2 74.8 254.5
08/05 01:00 4.4 98 6.4 4.1 33 46 1008.1 2.6 15.3 24.8 35.0 91.7 79.2 269.9
08/05 00:50 4.5 97 6.38 4.1 37 48 1008 2.4 15.2 24.7 34.9 91.3 78.8 268.6
08/05 00:40 4.6 96 6.36 4 28 33 1007.9 2.4 15.2 24.6 34.7 91.0 78.4 267.3
08/05 00:30 4.6 95 6.29 3.9 39 56 1007.8 2.4 15.0 24.5 34.5 90.2 77.4 263.9
08/05 00:20 4.7 95 6.33 4 43 52 1007.7 2.4 15.1 24.5 34.6 90.5 77.9 265.5
08/05 00:10 4.9 96 6.48 4.3 43 56 1007.6 2.4 15.4 24.7 35.1 91.9 79.7 271.9
08/05 00:00 5.1 97 6.64 4.7 46 69 1007.4 2.4 15.8 24.9 35.7 93.4 81.7 278.9
07/05 23:50 5.2 98 6.75 4.9 50 59 1007.3 2.4 16.0 25.1 36.1 94.5 83.1 283.8
07/05 23:40 5.1 98 6.71 4.8 28 32 1007.3 2.2 15.9 25.0 36.0 94.2 82.6 282.2
07/05 23:30 5.1 97 6.64 4.7 30 39 1007.2 2 15.8 24.9 35.7 93.4 81.7 278.8
07/05 23:20 5 97 6.6 4.6 32 37 1007.3 1.6 15.7 24.9 35.5 93.1 81.2 277.3
07/05 23:10 5 96 6.53 4.4 32 39 1007.2 1.4 15.5 24.8 35.2 92.3 80.3 273.9
07/05 23:00 4.8 97 6.51 4.4 30 39 1007.4 1.4 15.5 24.8 35.3 92.3 80.2 273.7
07/05 22:50 4.6 97 6.42 4.2 28 35 1007.3 1.2 15.3 24.7 35.0 91.6 79.2 270.0
07/05 22:40 4.3 98 6.36 4 24 32 1007.7 1.2 15.2 24.7 34.9 91.3 78.7 268.3
07/05 22:30 4.5 97 6.38 4.1 28 35 1008 1 15.2 24.7 34.9 91.3 78.8 268.6
07/05 22:20 4.4 96 6.27 3.8 26 33 1007.9 1 15.0 24.5 34.5 90.2 77.4 263.7
07/05 22:10 4.3 97 6.3 3.9 26 33 1008 0.8 15.1 24.6 34.6 90.7 77.9 265.5
07/05 22:00 4.1 97 6.21 3.7 30 41 1008.2 0.8 14.9 24.5 34.4 89.9 76.9 261.9
07/05 21:50 3.8 98 6.15 3.5 35 44 1008.4 0.8 14.8 24.5 34.2 89.6 76.4 260.0
07/05 21:40 3.4 97 5.93 3 28 33 1008.6 0.2 14.3 24.3 33.5 87.7 73.8 250.8
07/05 21:30 3.2 97 5.85 2.8 30 37 1008.5 0 14.1 24.2 33.3 87.0 72.9 247.6
07/05 21:20 3 97 5.77 2.6 32 35 1008.5 0 14.0 24.1 33.0 86.3 71.9 244.4
07/05 21:10 3 96 5.71 2.4 30 35 1008.4 0 13.8 24.0 32.8 85.6 71.1 241.5
07/05 21:00 2.8 96 5.64 2.2 33 46 1008.2 0 13.7 23.9 32.5 85.1 70.3 238.7
07/05 20:50 2.6 96 5.56 2 33 41 1008.2 0 13.5 23.9 32.3 84.4 69.4 235.5
07/05 20:40 2.6 94 5.45 1.7 35 43 1008.1 0 13.3 23.7 31.8 83.2 67.9 230.3
07/05 20:30 2.3 94 5.34 1.4 33 44 1008.1 0 13.1 23.6 31.5 82.3 66.7 225.9
07/05 20:20 2.2 93 5.24 1.2 33 41 1008.2 0 12.8 23.4 31.2 81.3 65.5 221.5
07/05 20:10 2.2 93 5.24 1.2 35 43 1008.4 0 12.8 23.4 31.2 81.4 65.5 221.6
07/05 20:00 2 93 5.17 1 39 56 1008.2 0 12.7 23.4 30.9 80.8 64.7 218.8

Last Refresh: 08-May-2026 12:08:52

Bureau of Meteorology